TimeCDT,TemperatureF,Dew PointF,Humidity,Sea Level PressureIn,VisibilityMPH,Wind Direction,Wind SpeedMPH,Gust SpeedMPH,PrecipitationIn,Events,Conditions,WindDirDegrees,DateUTC
12:51 AM,77.0,72.0,84,29.98,9.0,Calm,Calm,-,N/A,,Clear,0,2013-08-18 05:51:00
1:51 AM,77.0,72.0,84,29.97,8.0,Calm,Calm,-,N/A,,Clear,0,2013-08-18 06:51:00
2:51 AM,72.0,70.0,93,29.97,4.0,West,3.5,-,N/A,,Clear,280,2013-08-18 07:51:00
3:51 AM,73.0,71.1,93,29.97,3.0,North,4.6,-,N/A,,Clear,350,2013-08-18 08:51:00
4:51 AM,73.0,71.1,93,29.97,3.0,NNW,3.5,-,N/A,,Clear,340,2013-08-18 09:51:00
5:51 AM,72.0,71.1,97,29.98,3.0,North,3.5,-,N/A,,Clear,350,2013-08-18 10:51:00
6:42 AM,71.6,71.6,100,29.99,2.5,North,3.5,-,N/A,,Clear,360,2013-08-18 11:42:00
6:51 AM,72.0,71.1,97,29.99,2.5,North,3.5,-,N/A,,Clear,350,2013-08-18 11:51:00
7:07 AM,71.6,69.8,94,30.00,1.5,North,3.5,-,N/A,,Clear,350,2013-08-18 12:07:00
7:51 AM,75.0,73.0,94,30.01,1.8,North,4.6,-,N/A,,Clear,10,2013-08-18 12:51:00
7:58 AM,75.2,73.4,94,30.01,2.0,North,3.5,-,N/A,,Clear,10,2013-08-18 12:58:00
8:25 AM,78.8,73.4,83,30.01,3.0,NNE,3.5,-,N/A,,Clear,20,2013-08-18 13:25:00
8:51 AM,82.0,75.0,79,30.01,6.0,North,3.5,-,N/A,,Haze,360,2013-08-18 13:51:00
9:51 AM,87.1,72.0,61,30.01,10.0,NNW,3.5,-,N/A,,Clear,340,2013-08-18 14:51:00
10:51 AM,90.0,69.1,50,30.02,10.0,Variable,4.6,-,N/A,,Mostly Cloudy,0,2013-08-18 15:51:00
11:51 AM,93.9,66.0,40,30.01,10.0,North,8.1,-,N/A,,Mostly Cloudy,10,2013-08-18 16:51:00
12:51 PM,98.1,64.0,33,30.01,10.0,North,10.4,-,N/A,,Scattered Clouds,360,2013-08-18 17:51:00
1:51 PM,97.0,62.1,31,30.00,10.0,Variable,5.8,-,N/A,,Scattered Clouds,0,2013-08-18 18:51:00
2:51 PM,99.0,60.1,28,29.98,10.0,East,10.4,-,N/A,,Scattered Clouds,100,2013-08-18 19:51:00
3:51 PM,99.0,60.1,28,29.96,10.0,East,9.2,19.6,N/A,,Clear,80,2013-08-18 20:51:00
4:51 PM,98.1,63.0,31,29.96,10.0,ESE,16.1,24.2,N/A,,Clear,110,2013-08-18 21:51:00
5:51 PM,95.0,64.0,36,29.96,10.0,SSE,12.7,23.0,N/A,,Clear,150,2013-08-18 22:51:00
6:51 PM,91.0,66.9,45,29.96,10.0,SE,16.1,-,N/A,,Clear,140,2013-08-18 23:51:00
7:51 PM,87.1,68.0,53,29.96,10.0,SE,10.4,-,N/A,,Clear,140,2013-08-19 00:51:00
8:51 PM,84.0,69.1,61,29.96,10.0,SE,11.5,-,N/A,,Clear,130,2013-08-19 01:51:00
9:51 PM,81.0,70.0,69,29.98,10.0,South,5.8,-,N/A,,Clear,170,2013-08-19 02:51:00
10:51 PM,80.1,71.1,74,29.98,10.0,SSE,4.6,-,N/A,,Clear,160,2013-08-19 03:51:00
11:51 PM,79.0,71.1,77,29.98,9.0,South,3.5,-,N/A,,Clear,170,2013-08-19 04:51:00